Bardolph, Illinois
Current Conditions -  °F | °C
As of 2:15 PM on Saturday 25 Oct 2014 (Local Time) from KMQB Reporting Station
Clear Clear  
Wind Chill: 75°   Ceiling: Unl
Heat Index: 75°   Visibility: 10mi
Dew Point: 42°   Wind: 7mph
Humidity: 31%   Direction: 330°NNW
Pressure: 30.04"   Gusts: NA
Location:  40.5°N, 90.56°W
Report Text: KMQB 251915Z AUTO 33006KT 10SM CLR 24/06 A3004 RMK AO2 T02390057
Loading
Personal Weather Stations






























Interactive Weather Map
Tropical Storm Tracking
New forecast layout! Learn more

10-Day Weather Forecast

Advertisements
Track Severe Weather on mobile